sensor_id;sensor_type;location;lat;lon;timestamp;P1;durP1;ratioP1;P2;durP2;ratioP2
21188;SDS011;39071;52.420;20.896;2022-10-30T00:00:23;12.93;;;4.60;;
21188;SDS011;39071;52.420;20.896;2022-10-30T00:02:49;9.07;;;4.37;;
21188;SDS011;39071;52.420;20.896;2022-10-30T00:05:15;8.80;;;5.17;;
21188;SDS011;39071;52.420;20.896;2022-10-30T00:07:41;8.00;;;4.30;;
21188;SDS011;39071;52.420;20.896;2022-10-30T00:10:07;10.07;;;4.17;;
21188;SDS011;39071;52.420;20.896;2022-10-30T00:12:34;9.97;;;4.77;;
21188;SDS011;39071;52.420;20.896;2022-10-30T00:15:00;9.67;;;4.50;;
21188;SDS011;39071;52.420;20.896;2022-10-30T00:17:26;5.17;;;3.43;;
21188;SDS011;39071;52.420;20.896;2022-10-30T00:19:51;7.60;;;2.67;;
21188;SDS011;39071;52.420;20.896;2022-10-30T00:22:17;9.77;;;4.03;;
21188;SDS011;39071;52.420;20.896;2022-10-30T00:24:43;12.33;;;5.10;;
21188;SDS011;39071;52.420;20.896;2022-10-30T00:27:08;10.67;;;4.40;;
21188;SDS011;39071;52.420;20.896;2022-10-30T00:29:34;8.73;;;4.27;;
21188;SDS011;39071;52.420;20.896;2022-10-30T00:32:00;12.33;;;4.90;;
21188;SDS011;39071;52.420;20.896;2022-10-30T00:34:26;7.70;;;4.50;;
21188;SDS011;39071;52.420;20.896;2022-10-30T00:36:51;7.27;;;3.73;;
21188;SDS011;39071;52.420;20.896;2022-10-30T00:39:17;8.63;;;4.33;;
21188;SDS011;39071;52.420;20.896;2022-10-30T00:41:43;8.63;;;4.00;;
21188;SDS011;39071;52.420;20.896;2022-10-30T00:50:14;9.17;;;4.53;;
21188;SDS011;39071;52.420;20.896;2022-10-30T00:52:48;6.63;;;3.60;;
21188;SDS011;39071;52.420;20.896;2022-10-30T00:55:18;7.30;;;3.90;;
21188;SDS011;39071;52.420;20.896;2022-10-30T00:57:49;13.10;;;5.10;;
21188;SDS011;39071;52.420;20.896;2022-10-30T01:00:17;6.83;;;4.17;;
21188;SDS011;39071;52.420;20.896;2022-10-30T01:02:45;20.97;;;5.47;;
21188;SDS011;39071;52.420;20.896;2022-10-30T01:05:12;8.37;;;4.30;;
21188;SDS011;39071;52.420;20.896;2022-10-30T01:07:41;9.83;;;5.03;;
21188;SDS011;39071;52.420;20.896;2022-10-30T01:10:07;8.83;;;4.30;;
21188;SDS011;39071;52.420;20.896;2022-10-30T01:12:34;7.10;;;4.17;;
21188;SDS011;39071;52.420;20.896;2022-10-30T01:15:00;6.33;;;3.87;;
21188;SDS011;39071;52.420;20.896;2022-10-30T01:25:42;7.93;;;4.57;;
21188;SDS011;39071;52.420;20.896;2022-10-30T01:39:26;8.40;;;4.00;;
21188;SDS011;39071;52.420;20.896;2022-10-30T01:41:55;7.43;;;4.30;;
21188;SDS011;39071;52.420;20.896;2022-10-30T01:44:22;7.47;;;3.90;;
21188;SDS011;39071;52.420;20.896;2022-10-30T01:46:58;8.60;;;4.23;;
21188;SDS011;39071;52.420;20.896;2022-10-30T01:58:05;7.37;;;3.27;;
21188;SDS011;39071;52.420;20.896;2022-10-30T02:00:57;6.37;;;3.53;;
21188;SDS011;39071;52.420;20.896;2022-10-30T02:03:25;10.07;;;4.90;;
21188;SDS011;39071;52.420;20.896;2022-10-30T02:05:51;6.07;;;3.13;;
21188;SDS011;39071;52.420;20.896;2022-10-30T02:08:18;7.07;;;4.20;;
21188;SDS011;39071;52.420;20.896;2022-10-30T02:10:46;7.40;;;3.90;;
21188;SDS011;39071;52.420;20.896;2022-10-30T02:13:14;8.13;;;3.70;;
21188;SDS011;39071;52.420;20.896;2022-10-30T02:15:40;8.10;;;4.57;;
21188;SDS011;39071;52.420;20.896;2022-10-30T02:18:07;9.87;;;4.97;;
21188;SDS011;39071;52.420;20.896;2022-10-30T02:20:33;7.07;;;4.07;;
21188;SDS011;39071;52.420;20.896;2022-10-30T02:23:00;9.73;;;3.63;;
21188;SDS011;39071;52.420;20.896;2022-10-30T02:25:26;7.23;;;3.83;;
21188;SDS011;39071;52.420;20.896;2022-10-30T02:27:51;7.57;;;3.67;;
21188;SDS011;39071;52.420;20.896;2022-10-30T02:30:17;7.87;;;4.27;;
21188;SDS011;39071;52.420;20.896;2022-10-30T02:32:43;9.13;;;4.07;;
21188;SDS011;39071;52.420;20.896;2022-10-30T02:35:09;7.23;;;3.60;;
21188;SDS011;39071;52.420;20.896;2022-10-30T02:37:35;6.00;;;4.10;;
21188;SDS011;39071;52.420;20.896;2022-10-30T02:40:01;11.20;;;4.53;;
21188;SDS011;39071;52.420;20.896;2022-10-30T02:42:28;8.97;;;5.23;;
21188;SDS011;39071;52.420;20.896;2022-10-30T02:44:53;6.63;;;3.93;;
21188;SDS011;39071;52.420;20.896;2022-10-30T02:47:19;6.20;;;4.03;;
21188;SDS011;39071;52.420;20.896;2022-10-30T02:49:45;6.60;;;3.47;;
21188;SDS011;39071;52.420;20.896;2022-10-30T02:52:11;9.33;;;3.43;;
21188;SDS011;39071;52.420;20.896;2022-10-30T02:54:36;6.33;;;3.40;;
21188;SDS011;39071;52.420;20.896;2022-10-30T02:57:02;9.20;;;4.60;;
21188;SDS011;39071;52.420;20.896;2022-10-30T02:59:28;6.77;;;3.53;;
21188;SDS011;39071;52.420;20.896;2022-10-30T03:01:54;5.90;;;3.63;;
21188;SDS011;39071;52.420;20.896;2022-10-30T03:04:20;7.47;;;4.70;;
21188;SDS011;39071;52.420;20.896;2022-10-30T03:06:45;6.13;;;3.53;;
21188;SDS011;39071;52.420;20.896;2022-10-30T03:09:11;9.60;;;5.37;;
21188;SDS011;39071;52.420;20.896;2022-10-30T03:11:37;7.90;;;4.83;;
21188;SDS011;39071;52.420;20.896;2022-10-30T03:14:03;9.90;;;4.30;;
21188;SDS011;39071;52.420;20.896;2022-10-30T03:16:28;9.17;;;4.27;;
21188;SDS011;39071;52.420;20.896;2022-10-30T03:18:57;7.90;;;3.50;;
21188;SDS011;39071;52.420;20.896;2022-10-30T03:21:25;5.87;;;3.13;;
21188;SDS011;39071;52.420;20.896;2022-10-30T03:23:52;7.87;;;4.43;;
21188;SDS011;39071;52.420;20.896;2022-10-30T03:26:18;8.70;;;4.87;;
21188;SDS011;39071;52.420;20.896;2022-10-30T03:28:45;5.83;;;2.80;;
21188;SDS011;39071;52.420;20.896;2022-10-30T03:31:11;7.10;;;3.73;;
21188;SDS011;39071;52.420;20.896;2022-10-30T03:33:39;7.77;;;4.43;;
21188;SDS011;39071;52.420;20.896;2022-10-30T03:36:06;5.97;;;4.27;;
21188;SDS011;39071;52.420;20.896;2022-10-30T03:38:32;6.73;;;4.03;;
21188;SDS011;39071;52.420;20.896;2022-10-30T03:40:58;6.13;;;4.20;;
21188;SDS011;39071;52.420;20.896;2022-10-30T03:43:25;6.77;;;4.47;;
21188;SDS011;39071;52.420;20.896;2022-10-30T03:45:52;8.40;;;4.23;;
21188;SDS011;39071;52.420;20.896;2022-10-30T03:48:19;7.77;;;4.60;;
21188;SDS011;39071;52.420;20.896;2022-10-30T03:50:46;8.00;;;4.43;;
21188;SDS011;39071;52.420;20.896;2022-10-30T03:53:12;6.67;;;3.67;;
21188;SDS011;39071;52.420;20.896;2022-10-30T03:55:38;6.47;;;3.77;;
21188;SDS011;39071;52.420;20.896;2022-10-30T03:58:05;7.57;;;4.23;;
21188;SDS011;39071;52.420;20.896;2022-10-30T04:00:32;10.23;;;4.77;;
21188;SDS011;39071;52.420;20.896;2022-10-30T04:02:58;8.80;;;4.13;;
21188;SDS011;39071;52.420;20.896;2022-10-30T04:05:24;8.40;;;4.20;;
21188;SDS011;39071;52.420;20.896;2022-10-30T04:07:54;9.73;;;4.33;;
21188;SDS011;39071;52.420;20.896;2022-10-30T04:10:25;9.63;;;3.90;;
21188;SDS011;39071;52.420;20.896;2022-10-30T04:12:51;11.70;;;6.00;;
21188;SDS011;39071;52.420;20.896;2022-10-30T04:15:18;12.27;;;4.73;;
21188;SDS011;39071;52.420;20.896;2022-10-30T04:17:47;14.13;;;5.50;;
21188;SDS011;39071;52.420;20.896;2022-10-30T04:20:15;9.57;;;5.57;;
21188;SDS011;39071;52.420;20.896;2022-10-30T04:22:41;9.07;;;4.40;;
21188;SDS011;39071;52.420;20.896;2022-10-30T04:25:07;9.07;;;4.60;;
21188;SDS011;39071;52.420;20.896;2022-10-30T04:27:38;9.00;;;4.33;;
21188;SDS011;39071;52.420;20.896;2022-10-30T04:30:05;9.50;;;3.77;;
21188;SDS011;39071;52.420;20.896;2022-10-30T04:32:31;7.33;;;3.97;;
21188;SDS011;39071;52.420;20.896;2022-10-30T04:34:57;17.40;;;4.47;;
21188;SDS011;39071;52.420;20.896;2022-10-30T04:37:22;6.43;;;3.63;;
21188;SDS011;39071;52.420;20.896;2022-10-30T04:39:48;5.73;;;3.73;;
21188;SDS011;39071;52.420;20.896;2022-10-30T04:42:14;9.13;;;4.33;;
21188;SDS011;39071;52.420;20.896;2022-10-30T04:44:40;8.27;;;4.60;;
21188;SDS011;39071;52.420;20.896;2022-10-30T04:47:06;7.60;;;4.30;;
21188;SDS011;39071;52.420;20.896;2022-10-30T04:49:31;7.43;;;3.77;;
21188;SDS011;39071;52.420;20.896;2022-10-30T04:51:57;10.40;;;5.10;;
21188;SDS011;39071;52.420;20.896;2022-10-30T04:54:23;6.90;;;3.67;;
21188;SDS011;39071;52.420;20.896;2022-10-30T04:56:49;17.37;;;4.70;;
21188;SDS011;39071;52.420;20.896;2022-10-30T04:59:14;10.80;;;4.73;;
21188;SDS011;39071;52.420;20.896;2022-10-30T05:01:40;6.00;;;3.67;;
21188;SDS011;39071;52.420;20.896;2022-10-30T05:04:06;10.30;;;4.53;;
21188;SDS011;39071;52.420;20.896;2022-10-30T05:06:31;8.13;;;3.40;;
21188;SDS011;39071;52.420;20.896;2022-10-30T05:08:57;8.97;;;4.53;;
21188;SDS011;39071;52.420;20.896;2022-10-30T05:11:23;9.93;;;4.40;;
21188;SDS011;39071;52.420;20.896;2022-10-30T05:13:49;8.23;;;4.20;;
21188;SDS011;39071;52.420;20.896;2022-10-30T05:16:15;9.57;;;4.00;;
21188;SDS011;39071;52.420;20.896;2022-10-30T05:18:40;9.47;;;3.87;;
21188;SDS011;39071;52.420;20.896;2022-10-30T05:21:06;6.73;;;4.10;;
21188;SDS011;39071;52.420;20.896;2022-10-30T05:23:32;9.10;;;4.43;;
21188;SDS011;39071;52.420;20.896;2022-10-30T05:26:00;5.50;;;4.40;;
21188;SDS011;39071;52.420;20.896;2022-10-30T05:28:27;8.07;;;4.47;;
21188;SDS011;39071;52.420;20.896;2022-10-30T05:30:52;7.00;;;4.07;;
21188;SDS011;39071;52.420;20.896;2022-10-30T05:33:19;8.90;;;4.93;;
21188;SDS011;39071;52.420;20.896;2022-10-30T05:35:44;12.93;;;5.27;;
21188;SDS011;39071;52.420;20.896;2022-10-30T05:38:10;10.87;;;5.57;;
21188;SDS011;39071;52.420;20.896;2022-10-30T05:40:37;6.80;;;4.07;;
21188;SDS011;39071;52.420;20.896;2022-10-30T05:43:03;10.60;;;4.23;;
21188;SDS011;39071;52.420;20.896;2022-10-30T05:45:29;7.57;;;3.57;;
21188;SDS011;39071;52.420;20.896;2022-10-30T05:47:57;12.57;;;4.47;;
21188;SDS011;39071;52.420;20.896;2022-10-30T05:50:24;8.10;;;4.03;;
21188;SDS011;39071;52.420;20.896;2022-10-30T05:52:57;9.90;;;3.80;;
21188;SDS011;39071;52.420;20.896;2022-10-30T05:55:27;7.00;;;4.20;;
21188;SDS011;39071;52.420;20.896;2022-10-30T05:57:54;9.27;;;4.33;;
21188;SDS011;39071;52.420;20.896;2022-10-30T06:00:24;10.37;;;5.37;;
21188;SDS011;39071;52.420;20.896;2022-10-30T06:02:51;9.23;;;5.00;;
21188;SDS011;39071;52.420;20.896;2022-10-30T06:05:22;9.93;;;4.53;;
21188;SDS011;39071;52.420;20.896;2022-10-30T06:07:48;6.77;;;3.73;;
21188;SDS011;39071;52.420;20.896;2022-10-30T06:10:14;13.00;;;4.33;;
21188;SDS011;39071;52.420;20.896;2022-10-30T06:12:39;6.30;;;3.47;;
21188;SDS011;39071;52.420;20.896;2022-10-30T06:15:05;8.23;;;4.17;;
21188;SDS011;39071;52.420;20.896;2022-10-30T06:17:31;8.93;;;4.33;;
21188;SDS011;39071;52.420;20.896;2022-10-30T06:19:57;7.67;;;4.33;;
21188;SDS011;39071;52.420;20.896;2022-10-30T06:22:23;8.63;;;4.10;;
21188;SDS011;39071;52.420;20.896;2022-10-30T06:24:48;7.73;;;4.30;;
21188;SDS011;39071;52.420;20.896;2022-10-30T06:27:14;8.07;;;4.13;;
21188;SDS011;39071;52.420;20.896;2022-10-30T06:29:40;7.30;;;4.33;;
21188;SDS011;39071;52.420;20.896;2022-10-30T06:32:06;6.07;;;4.03;;
21188;SDS011;39071;52.420;20.896;2022-10-30T06:34:32;7.27;;;4.33;;
21188;SDS011;39071;52.420;20.896;2022-10-30T06:36:58;7.60;;;4.57;;
21188;SDS011;39071;52.420;20.896;2022-10-30T06:39:24;6.03;;;3.20;;
21188;SDS011;39071;52.420;20.896;2022-10-30T06:41:51;9.63;;;3.57;;
21188;SDS011;39071;52.420;20.896;2022-10-30T06:44:17;10.23;;;4.20;;
21188;SDS011;39071;52.420;20.896;2022-10-30T06:46:42;8.30;;;3.33;;
21188;SDS011;39071;52.420;20.896;2022-10-30T06:49:08;7.37;;;4.07;;
21188;SDS011;39071;52.420;20.896;2022-10-30T06:51:34;9.83;;;4.97;;
21188;SDS011;39071;52.420;20.896;2022-10-30T06:53:59;7.17;;;3.83;;
21188;SDS011;39071;52.420;20.896;2022-10-30T06:56:25;6.93;;;4.00;;
21188;SDS011;39071;52.420;20.896;2022-10-30T06:58:51;9.33;;;4.23;;
21188;SDS011;39071;52.420;20.896;2022-10-30T07:01:16;8.00;;;3.80;;
21188;SDS011;39071;52.420;20.896;2022-10-30T07:03:42;12.63;;;5.30;;
21188;SDS011;39071;52.420;20.896;2022-10-30T07:06:08;9.70;;;5.53;;
21188;SDS011;39071;52.420;20.896;2022-10-30T07:08:33;10.30;;;4.90;;
21188;SDS011;39071;52.420;20.896;2022-10-30T07:10:59;9.10;;;4.80;;
21188;SDS011;39071;52.420;20.896;2022-10-30T07:13:25;10.70;;;4.30;;
21188;SDS011;39071;52.420;20.896;2022-10-30T07:15:51;8.07;;;4.13;;
21188;SDS011;39071;52.420;20.896;2022-10-30T07:18:16;7.47;;;4.30;;
21188;SDS011;39071;52.420;20.896;2022-10-30T07:20:42;11.37;;;5.10;;
21188;SDS011;39071;52.420;20.896;2022-10-30T07:23:08;8.53;;;4.33;;
21188;SDS011;39071;52.420;20.896;2022-10-30T07:25:33;8.30;;;3.90;;
21188;SDS011;39071;52.420;20.896;2022-10-30T07:27:59;8.37;;;4.67;;
21188;SDS011;39071;52.420;20.896;2022-10-30T07:30:25;8.47;;;4.13;;
21188;SDS011;39071;52.420;20.896;2022-10-30T07:33:02;11.87;;;5.87;;
21188;SDS011;39071;52.420;20.896;2022-10-30T07:35:29;9.47;;;4.27;;
21188;SDS011;39071;52.420;20.896;2022-10-30T07:38:00;6.13;;;3.63;;
21188;SDS011;39071;52.420;20.896;2022-10-30T07:40:30;12.83;;;5.87;;
21188;SDS011;39071;52.420;20.896;2022-10-30T07:42:57;9.17;;;4.20;;
21188;SDS011;39071;52.420;20.896;2022-10-30T07:45:23;9.03;;;4.23;;
21188;SDS011;39071;52.420;20.896;2022-10-30T07:47:50;11.20;;;4.57;;
21188;SDS011;39071;52.420;20.896;2022-10-30T07:50:16;7.47;;;3.70;;
21188;SDS011;39071;52.420;20.896;2022-10-30T07:52:42;7.17;;;4.30;;
21188;SDS011;39071;52.420;20.896;2022-10-30T07:55:08;7.83;;;4.10;;
21188;SDS011;39071;52.420;20.896;2022-10-30T07:57:37;13.97;;;5.43;;
21188;SDS011;39071;52.420;20.896;2022-10-30T08:00:04;6.47;;;4.47;;
21188;SDS011;39071;52.420;20.896;2022-10-30T08:02:31;6.70;;;3.80;;
21188;SDS011;39071;52.420;20.896;2022-10-30T08:04:57;8.03;;;4.07;;
21188;SDS011;39071;52.420;20.896;2022-10-30T08:07:27;10.73;;;4.13;;
21188;SDS011;39071;52.420;20.896;2022-10-30T08:09:57;13.10;;;4.37;;
21188;SDS011;39071;52.420;20.896;2022-10-30T08:12:23;6.00;;;3.13;;
21188;SDS011;39071;52.420;20.896;2022-10-30T08:14:49;7.93;;;4.03;;
21188;SDS011;39071;52.420;20.896;2022-10-30T08:17:14;10.43;;;4.53;;
21188;SDS011;39071;52.420;20.896;2022-10-30T08:19:40;7.70;;;3.97;;
21188;SDS011;39071;52.420;20.896;2022-10-30T08:22:06;10.57;;;4.78;;
21188;SDS011;39071;52.420;20.896;2022-10-30T08:24:34;13.23;;;4.28;;
21188;SDS011;39071;52.420;20.896;2022-10-30T08:27:00;8.15;;;4.68;;
21188;SDS011;39071;52.420;20.896;2022-10-30T08:29:25;4.95;;;3.17;;
21188;SDS011;39071;52.420;20.896;2022-10-30T08:31:51;5.82;;;3.50;;
21188;SDS011;39071;52.420;20.896;2022-10-30T08:34:17;7.82;;;3.50;;
21188;SDS011;39071;52.420;20.896;2022-10-30T08:36:42;9.75;;;4.15;;
21188;SDS011;39071;52.420;20.896;2022-10-30T08:39:08;7.28;;;3.13;;
21188;SDS011;39071;52.420;20.896;2022-10-30T08:41:34;8.38;;;3.97;;
21188;SDS011;39071;52.420;20.896;2022-10-30T08:44:00;5.43;;;3.22;;
21188;SDS011;39071;52.420;20.896;2022-10-30T08:46:25;7.00;;;3.75;;
21188;SDS011;39071;52.420;20.896;2022-10-30T08:48:51;6.13;;;3.47;;
21188;SDS011;39071;52.420;20.896;2022-10-30T08:51:18;4.97;;;2.90;;
21188;SDS011;39071;52.420;20.896;2022-10-30T08:53:46;5.43;;;3.17;;
21188;SDS011;39071;52.420;20.896;2022-10-30T08:56:13;7.93;;;3.47;;
21188;SDS011;39071;52.420;20.896;2022-10-30T08:58:40;8.52;;;3.95;;
21188;SDS011;39071;52.420;20.896;2022-10-30T09:01:06;7.17;;;4.40;;
21188;SDS011;39071;52.420;20.896;2022-10-30T09:03:31;7.95;;;3.92;;
21188;SDS011;39071;52.420;20.896;2022-10-30T09:05:57;5.25;;;3.00;;
21188;SDS011;39071;52.420;20.896;2022-10-30T09:08:24;9.13;;;4.10;;
21188;SDS011;39071;52.420;20.896;2022-10-30T09:10:53;7.22;;;2.80;;
21188;SDS011;39071;52.420;20.896;2022-10-30T09:13:20;8.48;;;3.95;;
21188;SDS011;39071;52.420;20.896;2022-10-30T09:15:45;6.18;;;3.40;;
21188;SDS011;39071;52.420;20.896;2022-10-30T09:18:11;10.57;;;3.95;;
21188;SDS011;39071;52.420;20.896;2022-10-30T09:20:37;5.03;;;3.10;;
21188;SDS011;39071;52.420;20.896;2022-10-30T09:23:03;7.05;;;3.45;;
21188;SDS011;39071;52.420;20.896;2022-10-30T09:25:28;7.85;;;3.13;;
21188;SDS011;39071;52.420;20.896;2022-10-30T09:27:54;5.10;;;2.97;;
21188;SDS011;39071;52.420;20.896;2022-10-30T09:30:20;7.83;;;4.53;;
21188;SDS011;39071;52.420;20.896;2022-10-30T09:32:52;6.68;;;3.28;;
21188;SDS011;39071;52.420;20.896;2022-10-30T09:35:22;7.63;;;3.17;;
21188;SDS011;39071;52.420;20.896;2022-10-30T09:37:48;11.25;;;3.65;;
21188;SDS011;39071;52.420;20.896;2022-10-30T09:40:33;6.85;;;3.75;;
21188;SDS011;39071;52.420;20.896;2022-10-30T09:43:07;4.82;;;2.85;;
21188;SDS011;39071;52.420;20.896;2022-10-30T09:53:51;5.53;;;3.22;;
21188;SDS011;39071;52.420;20.896;2022-10-30T10:04:22;4.18;;;2.03;;
21188;SDS011;39071;52.420;20.896;2022-10-30T10:07:11;3.60;;;2.05;;
21188;SDS011;39071;52.420;20.896;2022-10-30T10:09:55;4.50;;;2.55;;
21188;SDS011;39071;52.420;20.896;2022-10-30T10:13:12;2.47;;;2.00;;
21188;SDS011;39071;52.420;20.896;2022-10-30T10:18:00;4.10;;;2.20;;
21188;SDS011;39071;52.420;20.896;2022-10-30T10:23:02;3.10;;;1.50;;
21188;SDS011;39071;52.420;20.896;2022-10-30T10:25:36;2.33;;;1.67;;
21188;SDS011;39071;52.420;20.896;2022-10-30T10:39:30;2.70;;;1.75;;
21188;SDS011;39071;52.420;20.896;2022-10-30T10:42:13;4.57;;;1.80;;
21188;SDS011;39071;52.420;20.896;2022-10-30T10:45:24;2.22;;;1.65;;
21188;SDS011;39071;52.420;20.896;2022-10-30T10:50:48;3.00;;;1.90;;
21188;SDS011;39071;52.420;20.896;2022-10-30T10:56:17;4.47;;;2.55;;
21188;SDS011;39071;52.420;20.896;2022-10-30T10:58:53;4.53;;;1.58;;
21188;SDS011;39071;52.420;20.896;2022-10-30T11:01:22;3.03;;;1.08;;
21188;SDS011;39071;52.420;20.896;2022-10-30T11:04:13;3.88;;;1.65;;
21188;SDS011;39071;52.420;20.896;2022-10-30T11:06:55;5.40;;;1.48;;
21188;SDS011;39071;52.420;20.896;2022-10-30T11:09:22;3.55;;;0.85;;
21188;SDS011;39071;52.420;20.896;2022-10-30T11:11:51;3.70;;;1.80;;
21188;SDS011;39071;52.420;20.896;2022-10-30T11:14:23;2.72;;;1.63;;
21188;SDS011;39071;52.420;20.896;2022-10-30T11:16:59;3.47;;;1.35;;
21188;SDS011;39071;52.420;20.896;2022-10-30T11:19:32;2.78;;;1.50;;
21188;SDS011;39071;52.420;20.896;2022-10-30T11:21:58;1.27;;;1.10;;
21188;SDS011;39071;52.420;20.896;2022-10-30T11:24:26;5.85;;;1.52;;
21188;SDS011;39071;52.420;20.896;2022-10-30T11:26:53;1.05;;;0.90;;
21188;SDS011;39071;52.420;20.896;2022-10-30T11:29:21;1.40;;;1.08;;
21188;SDS011;39071;52.420;20.896;2022-10-30T11:32:03;2.80;;;1.23;;
21188;SDS011;39071;52.420;20.896;2022-10-30T11:34:33;3.80;;;1.42;;
21188;SDS011;39071;52.420;20.896;2022-10-30T11:37:00;3.53;;;1.38;;
21188;SDS011;39071;52.420;20.896;2022-10-30T11:39:28;1.63;;;0.70;;
21188;SDS011;39071;52.420;20.896;2022-10-30T11:44:35;1.77;;;1.10;;
21188;SDS011;39071;52.420;20.896;2022-10-30T11:47:13;3.40;;;0.90;;
21188;SDS011;39071;52.420;20.896;2022-10-30T11:52:17;1.67;;;1.33;;
21188;SDS011;39071;52.420;20.896;2022-10-30T11:54:47;4.40;;;1.13;;
21188;SDS011;39071;52.420;20.896;2022-10-30T11:57:36;3.35;;;1.23;;
21188;SDS011;39071;52.420;20.896;2022-10-30T12:00:20;2.40;;;0.70;;
21188;SDS011;39071;52.420;20.896;2022-10-30T12:02:51;0.70;;;0.40;;
21188;SDS011;39071;52.420;20.896;2022-10-30T12:07:52;0.50;;;0.40;;
21188;SDS011;39071;52.420;20.896;2022-10-30T12:10:27;1.10;;;0.70;;
21188;SDS011;39071;52.420;20.896;2022-10-30T12:12:54;1.20;;;0.60;;
21188;SDS011;39071;52.420;20.896;2022-10-30T12:15:22;1.20;;;0.50;;
21188;SDS011;39071;52.420;20.896;2022-10-30T12:17:54;0.93;;;0.40;;
21188;SDS011;39071;52.420;20.896;2022-10-30T12:20:24;0.73;;;0.47;;
21188;SDS011;39071;52.420;20.896;2022-10-30T12:22:51;2.47;;;0.55;;
21188;SDS011;39071;52.420;20.896;2022-10-30T12:27:58;0.75;;;0.25;;
21188;SDS011;39071;52.420;20.896;2022-10-30T12:30:24;1.48;;;0.52;;
21188;SDS011;39071;52.420;20.896;2022-10-30T12:33:04;1.13;;;0.60;;
21188;SDS011;39071;52.420;20.896;2022-10-30T12:35:43;2.20;;;0.70;;
21188;SDS011;39071;52.420;20.896;2022-10-30T12:41:11;0.85;;;0.70;;
21188;SDS011;39071;52.420;20.896;2022-10-30T12:43:56;1.05;;;0.50;;
21188;SDS011;39071;52.420;20.896;2022-10-30T12:49:25;0.90;;;0.40;;
21188;SDS011;39071;52.420;20.896;2022-10-30T12:52:04;1.33;;;0.55;;
21188;SDS011;39071;52.420;20.896;2022-10-30T12:57:25;1.83;;;0.70;;
21188;SDS011;39071;52.420;20.896;2022-10-30T13:00:02;0.57;;;0.57;;
21188;SDS011;39071;52.420;20.896;2022-10-30T13:02:59;4.72;;;0.80;;
21188;SDS011;39071;52.420;20.896;2022-10-30T13:05:44;2.60;;;0.60;;
21188;SDS011;39071;52.420;20.896;2022-10-30T13:08:24;1.60;;;0.70;;
21188;SDS011;39071;52.420;20.896;2022-10-30T13:11:03;0.73;;;0.50;;
21188;SDS011;39071;52.420;20.896;2022-10-30T13:13:35;1.70;;;0.70;;
21188;SDS011;39071;52.420;20.896;2022-10-30T13:16:09;4.97;;;1.58;;
21188;SDS011;39071;52.420;20.896;2022-10-30T13:18:58;3.58;;;0.90;;
21188;SDS011;39071;52.420;20.896;2022-10-30T13:21:38;3.25;;;1.20;;
21188;SDS011;39071;52.420;20.896;2022-10-30T13:29:42;1.63;;;0.90;;
21188;SDS011;39071;52.420;20.896;2022-10-30T13:35:32;2.88;;;1.25;;
21188;SDS011;39071;52.420;20.896;2022-10-30T13:40:30;1.48;;;0.50;;
21188;SDS011;39071;52.420;20.896;2022-10-30T13:53:38;1.63;;;0.73;;
21188;SDS011;39071;52.420;20.896;2022-10-30T13:56:10;5.38;;;1.13;;
21188;SDS011;39071;52.420;20.896;2022-10-30T14:01:26;1.73;;;1.00;;
21188;SDS011;39071;52.420;20.896;2022-10-30T14:07:05;2.70;;;1.08;;
21188;SDS011;39071;52.420;20.896;2022-10-30T14:09:47;1.43;;;0.70;;
21188;SDS011;39071;52.420;20.896;2022-10-30T14:12:42;2.00;;;0.85;;
21188;SDS011;39071;52.420;20.896;2022-10-30T14:15:14;3.40;;;1.23;;
21188;SDS011;39071;52.420;20.896;2022-10-30T14:20:38;2.47;;;1.07;;
21188;SDS011;39071;52.420;20.896;2022-10-30T14:23:05;2.60;;;1.13;;
21188;SDS011;39071;52.420;20.896;2022-10-30T14:25:38;5.43;;;2.70;;
21188;SDS011;39071;52.420;20.896;2022-10-30T14:28:05;4.67;;;2.83;;
21188;SDS011;39071;52.420;20.896;2022-10-30T14:30:45;6.93;;;2.63;;
21188;SDS011;39071;52.420;20.896;2022-10-30T14:38:51;4.63;;;2.07;;
21188;SDS011;39071;52.420;20.896;2022-10-30T14:47:05;3.93;;;1.80;;
21188;SDS011;39071;52.420;20.896;2022-10-30T14:52:16;3.40;;;1.50;;
21188;SDS011;39071;52.420;20.896;2022-10-30T14:55:04;7.53;;;1.80;;
21188;SDS011;39071;52.420;20.896;2022-10-30T14:57:52;4.43;;;2.20;;
21188;SDS011;39071;52.420;20.896;2022-10-30T15:00:38;2.73;;;1.73;;
21188;SDS011;39071;52.420;20.896;2022-10-30T15:05:43;3.00;;;2.23;;
21188;SDS011;39071;52.420;20.896;2022-10-30T15:13:55;5.50;;;2.70;;
21188;SDS011;39071;52.420;20.896;2022-10-30T15:16:35;8.87;;;3.13;;
21188;SDS011;39071;52.420;20.896;2022-10-30T15:19:07;12.53;;;4.10;;
21188;SDS011;39071;52.420;20.896;2022-10-30T15:21:43;11.40;;;4.40;;
21188;SDS011;39071;52.420;20.896;2022-10-30T15:24:16;12.83;;;4.27;;
21188;SDS011;39071;52.420;20.896;2022-10-30T15:26:51;8.50;;;3.70;;
21188;SDS011;39071;52.420;20.896;2022-10-30T15:29:23;8.03;;;3.67;;
21188;SDS011;39071;52.420;20.896;2022-10-30T15:31:59;9.10;;;3.20;;
21188;SDS011;39071;52.420;20.896;2022-10-30T15:34:38;6.63;;;2.60;;
21188;SDS011;39071;52.420;20.896;2022-10-30T15:37:10;10.20;;;3.33;;
21188;SDS011;39071;52.420;20.896;2022-10-30T15:39:36;6.97;;;3.00;;
21188;SDS011;39071;52.420;20.896;2022-10-30T15:42:02;7.33;;;2.87;;
21188;SDS011;39071;52.420;20.896;2022-10-30T15:44:33;6.30;;;2.50;;
21188;SDS011;39071;52.420;20.896;2022-10-30T15:47:02;5.00;;;2.73;;
21188;SDS011;39071;52.420;20.896;2022-10-30T15:49:40;13.43;;;5.57;;
21188;SDS011;39071;52.420;20.896;2022-10-30T15:52:18;12.90;;;4.23;;
21188;SDS011;39071;52.420;20.896;2022-10-30T15:55:00;9.67;;;3.50;;
21188;SDS011;39071;52.420;20.896;2022-10-30T15:57:34;6.50;;;2.90;;
21188;SDS011;39071;52.420;20.896;2022-10-30T16:00:06;8.07;;;3.87;;
21188;SDS011;39071;52.420;20.896;2022-10-30T16:02:45;11.00;;;4.90;;
21188;SDS011;39071;52.420;20.896;2022-10-30T16:05:37;11.87;;;5.00;;
21188;SDS011;39071;52.420;20.896;2022-10-30T16:08:08;14.50;;;5.67;;
21188;SDS011;39071;52.420;20.896;2022-10-30T16:10:45;10.43;;;4.17;;
21188;SDS011;39071;52.420;20.896;2022-10-30T16:13:15;10.90;;;4.20;;
21188;SDS011;39071;52.420;20.896;2022-10-30T16:15:43;7.30;;;3.60;;
21188;SDS011;39071;52.420;20.896;2022-10-30T16:20:51;7.77;;;3.80;;
21188;SDS011;39071;52.420;20.896;2022-10-30T16:23:21;14.13;;;4.53;;
21188;SDS011;39071;52.420;20.896;2022-10-30T16:25:55;15.97;;;5.50;;
21188;SDS011;39071;52.420;20.896;2022-10-30T16:28:33;19.30;;;8.10;;
21188;SDS011;39071;52.420;20.896;2022-10-30T16:31:02;22.00;;;8.30;;
21188;SDS011;39071;52.420;20.896;2022-10-30T16:33:31;22.40;;;8.23;;
21188;SDS011;39071;52.420;20.896;2022-10-30T16:35:59;22.40;;;8.20;;
21188;SDS011;39071;52.420;20.896;2022-10-30T16:38:28;16.20;;;6.23;;
21188;SDS011;39071;52.420;20.896;2022-10-30T16:41:00;19.50;;;6.10;;
21188;SDS011;39071;52.420;20.896;2022-10-30T16:43:30;11.43;;;4.90;;
21188;SDS011;39071;52.420;20.896;2022-10-30T16:48:55;11.53;;;4.43;;
21188;SDS011;39071;52.420;20.896;2022-10-30T16:51:24;17.00;;;4.80;;
21188;SDS011;39071;52.420;20.896;2022-10-30T16:53:50;14.37;;;5.43;;
21188;SDS011;39071;52.420;20.896;2022-10-30T16:56:21;14.33;;;5.23;;
21188;SDS011;39071;52.420;20.896;2022-10-30T16:58:50;18.37;;;5.97;;
21188;SDS011;39071;52.420;20.896;2022-10-30T17:01:17;14.37;;;6.47;;
21188;SDS011;39071;52.420;20.896;2022-10-30T17:03:47;23.10;;;7.43;;
21188;SDS011;39071;52.420;20.896;2022-10-30T17:08:58;25.60;;;7.43;;
21188;SDS011;39071;52.420;20.896;2022-10-30T17:14:16;14.53;;;6.43;;
21188;SDS011;39071;52.420;20.896;2022-10-30T17:16:53;19.80;;;8.13;;
21188;SDS011;39071;52.420;20.896;2022-10-30T17:22:00;16.97;;;7.70;;